Terminal Aerodrome Forecast
Issued by NWS Tallahassee, FL

Home | Current Version | Previous Version | Text Only | Print | Product List | Glossary On
Versions: 1 2 3 4 5 6 7 8 9 10 11 12 13 14 15 16 17 18
119
FTUS42 KTAE 182320
TAFTLH
TAF
KTLH 182320Z 1900/1924 18003KT P6SM SCT040
     FM190300 VRB03KT 3SM BR BKN025
     FM190600 00000KT 1/4SM FG OVC002
     FM191600 18005KT P6SM BKN030=

USA.gov is the U.S. government's official web portal to all federal, state and local government web resources and services.